• Join FlightAware (Why Join?)
  • Login
  • US Flag 
04:59AM EDT


 

Airport Tracker/Info


-or-


 

Live Flight TrackerFlight Track Log ✈ UPS1308 ✈ 22-May-2013 ✈ KPHL - KATL

Flight Track Log - Related Links

Times and Time Zones

All times are in EDT time to prevent confusion due to time zone crossing. See the UPS1308 flight status page for this flight to view local times or setup timezone preferences in your user account.

Time Position Orientation Groundspeed Altitude Reporting Facility
EDT Latitude Longitude Course Direction KTS MPH feet Rate Location/Type
03:03AM 39.8610 -75.2714 17° North 145 167 1,300  Level FlightAware ADS-B
03:03AM 39.8587 -75.2781 246° West 150 173 1,700 2,160 Climbing FlightAware ADS-B
03:03AM 39.8552 -75.2876 244° Southwest 165 190 2,000 1,680 Climbing FlightAware ADS-B
03:03AM 39.8514 -75.2974 243° Southwest 179 206 2,300 2,100 Climbing FlightAware ADS-B
03:03AM 39.8476 -75.3068 242° Southwest 185 213 2,700 2,640 Climbing FlightAware ADS-B
03:04AM 39.8444 -75.3146 242° Southwest 189 217 3,100 3,240 Climbing FlightAware ADS-B
03:04AM 39.8429 -75.3184 243° Southwest 188 216 3,300 2,520 Climbing FlightAware ADS-B
03:04AM 39.8419 -75.3218 249° West 190 219 3,400 2,520 Climbing FlightAware ADS-B
03:04AM 39.8409 -75.3261 253° West 192 221 3,600 2,220 Climbing FlightAware ADS-B
03:04AM 39.8401 -75.3314 259° West 196 226 3,700 1,800 Climbing FlightAware ADS-B
03:04AM 39.8391 -75.3408 262° West 205 236 4,000 1,860 Climbing FlightAware ADS-B
03:04AM 39.8385 -75.3513 266° West 217 250 4,200 1,560 Climbing FlightAware ADS-B
03:04AM 39.8381 -75.3721 269° West 239 275 4,600 1,680 Climbing FlightAware ADS-B
03:04AM 39.8380 -75.3873 270° West 250 288 4,900 2,400 Climbing FlightAware ADS-B
03:05AM 39.8379 -75.4057 270° West 255 293 5,500 3,180 Climbing FlightAware ADS-B
03:05AM 39.8376 -75.4305 269° West 257 296 6,400 3,180 Climbing FlightAware ADS-B
03:05AM 39.8375 -75.4465 270° West 261 300 6,900 3,000 Climbing FlightAware ADS-B
03:05AM 39.8377 -75.4622 271° West 265 305 7,400 3,000 Climbing FlightAware ADS-B
03:05AM 39.8381 -75.4814 272° West 266 306 8,000 3,000 Climbing FlightAware ADS-B
03:06AM 39.8381 -75.4977 270° West 267 307 8,500 2,700 Climbing FlightAware ADS-B
03:06AM 39.8381 -75.5133 270° West 270 311 8,900 2,640 Climbing FlightAware ADS-B
03:06AM 39.8377 -75.5388 269° West 276 318 9,600 2,220 Climbing FlightAware ADS-B
03:06AM 39.8373 -75.5591 269° West 281 323 9,900 1,080 Climbing FlightAware ADS-B
03:07AM 39.8370 -75.5958 269° West 292 336 10,200 780 Climbing FlightAware ADS-B
03:07AM 39.8370 -75.6410 270° West 328 377 10,500 840 Climbing FlightAware ADS-B
03:08AM 39.8374 -75.7052 270° West 364 419 11,000 1,560 Climbing FlightAware ADS-B
03:08AM 39.8377 -75.7717 270° West 376 433 12,100 2,280 Climbing FlightAware ADS-B
03:08AM 39.8369 -75.7872 266° West 377 434 12,400 2,760 Climbing FlightAware ADS-B
03:08AM 39.8353 -75.7997 261° West 379 436 12,700 2,160 Climbing FlightAware ADS-B
03:08AM 39.8328 -75.8116 255° West 380 437 12,800 1,800 Climbing FlightAware ADS-B
03:08AM 39.8295 -75.8228 249° West 383 441 13,000 1,560 Climbing FlightAware ADS-B
03:09AM 39.8212 -75.8424 241° Southwest 390 449 13,200 1,800 Climbing FlightAware ADS-B
03:09AM 39.7969 -75.8876 235° Southwest 398 458 14,000 2,100 Climbing FlightAware ADS-B
03:09AM 39.7658 -75.9470 236° Southwest 404 465 15,100 2,160 Climbing FlightAware ADS-B
03:10AM 39.7336 -76.0080 236° Southwest 409 471 16,200 2,160 Climbing FlightAware ADS-B
03:10AM 39.6993 -76.0693 234° Southwest 415 478 17,300 1,860 Climbing FlightAware ADS-B
03:11AM 39.6652 -76.1306 234° Southwest 425 489 18,100 1,560 Climbing FlightAware ADS-B
03:11AM 39.6295 -76.1938 234° Southwest 433 498 18,900 1,560 Climbing FlightAware ADS-B
03:12AM 39.5928 -76.2584 234° Southwest 438 504 19,700 1,620 Climbing FlightAware ADS-B
03:12AM 39.5563 -76.3226 234° Southwest 442 509 20,600 1,680 Climbing FlightAware ADS-B
03:13AM 39.5189 -76.3862 233° Southwest 447 514 21,400 1,500 Climbing FlightAware ADS-B
03:13AM 39.4790 -76.4491 231° Southwest 452 520 22,100 1,260 Climbing FlightAware ADS-B
03:14AM 39.4387 -76.5128 231° Southwest 458 527 22,700 1,260 Climbing FlightAware ADS-B
03:14AM 39.3987 -76.5764 231° Southwest 462 532 23,400 1,080 Climbing FlightAware ADS-B
03:15AM 39.3574 -76.6422 231° Southwest 470 541 23,800 780 Climbing FlightAware ADS-B
03:15AM 39.3156 -76.7088 231° Southwest 480 552 24,200 960 Climbing FlightAware ADS-B
03:16AM 39.2728 -76.7766 231° Southwest 487 560 24,800 1,260 Climbing FlightAware ADS-B
03:16AM 39.2294 -76.8450 231° Southwest 492 566 25,500 1,260 Climbing FlightAware ADS-B
03:17AM 39.1861 -76.9133 231° Southwest 494 568 26,100 1,200 Climbing FlightAware ADS-B
03:17AM 39.1421 -76.9824 231° Southwest 498 573 26,700 1,080 Climbing FlightAware ADS-B
03:18AM 39.0976 -77.0516 230° Southwest 500 575 27,200 1,080 Climbing FlightAware ADS-B
03:18AM 39.0532 -77.1204 230° Southwest 500 575 27,800 1,260 Climbing FlightAware ADS-B
03:19AM 39.0077 -77.1908 230° Southwest 499 574 28,500 1,260 Climbing FlightAware ADS-B
03:20AM 38.9622 -77.2611 230° Southwest 500 575 29,100 1,140 Climbing FlightAware ADS-B
03:20AM 38.9176 -77.3301 230° Southwest 499 574 29,700 1,140 Climbing FlightAware ADS-B
03:21AM 38.8726 -77.3998 230° Southwest 498 573 30,300 1,200 Climbing FlightAware ADS-B
03:21AM 38.8277 -77.4694 230° Southwest 497 572 31,000 1,320 Climbing FlightAware ADS-B
03:22AM 38.7838 -77.5375 230° Southwest 496 571 31,700 1,260 Climbing FlightAware ADS-B
03:22AM 38.7396 -77.6058 230° Southwest 495 570 32,300 1,140 Climbing FlightAware ADS-B
03:23AM 38.6930 -77.6782 231° Southwest 495 570 32,900 1,200 Climbing FlightAware ADS-B
03:23AM 38.6488 -77.7463 230° Southwest 493 567 33,600 1,440 Climbing FlightAware ADS-B
03:24AM 38.6039 -77.8156 230° Southwest 487 560 34,400 1,200 Climbing FlightAware ADS-B
03:24AM 38.5680 -77.8710 230° Southwest 483 556 35,200 1,200 Climbing FlightAware
03:25AM 38.5120 -77.9570 230° Southwest 479 551 36,200 1,920 Climbing FlightAware
03:25AM 38.4474 -78.0548 230° Southwest 473 544 37,200 1,380 Climbing FlightAware ADS-B
03:26AM 38.3685 -78.1738 230° Southwest 474 545 38,000 480 Climbing FlightAware ADS-B
03:27AM 38.3206 -78.2458 230° Southwest 476 548 38,000  Level FlightAware ADS-B
03:27AM 38.2770 -78.3113 230° Southwest 477 549 38,000  Level FlightAware ADS-B
03:29AM 38.2130 -78.4080 230° Southwest 479 551 38,000  Level FlightAware
03:29AM 38.1688 -78.4729 229° Southwest 480 552 38,000  Level FlightAware ADS-B
03:29AM 38.1230 -78.5411 230° Southwest 479 551 38,000  Level FlightAware ADS-B
03:30AM 38.0778 -78.6083 229° Southwest 479 551 38,000  Level FlightAware ADS-B
03:31AM 38.0390 -78.6660 230° Southwest 478 550 38,000  Level FlightAware
03:31AM 37.9445 -78.8059 229° Southwest 477 549 38,000  Level FlightAware ADS-B
03:32AM 37.8910 -78.8840 229° Southwest 475 547 38,000  Level FlightAware
03:33AM 37.8150 -78.9980 230° Southwest 475 547 38,000  Level FlightAware
03:33AM 37.7570 -79.0830 229° Southwest 475 547 38,000  Level FlightAware
03:34AM 37.6930 -79.1750 229° Southwest 474 545 38,000  Level FlightAware
03:35AM 37.6350 -79.2590 229° Southwest 474 545 38,000  Level FlightAware
03:36AM 37.5710 -79.3530 229° Southwest 474 545 38,000  Level FlightAware
03:36AM 37.5140 -79.4350 229° Southwest 474 545 38,000  Level FlightAware
03:37AM 37.4610 -79.5110 229° Southwest 475 547 38,000  Level FlightAware
03:38AM 37.3910 -79.6130 229° Southwest 475 547 38,000  Level FlightAware
03:38AM 37.3420 -79.6830 229° Southwest 476 548 38,000  Level FlightAware
03:39AM 37.2650 -79.7880 227° Southwest 477 549 38,000  Level FlightAware
03:40AM 37.2060 -79.8700 228° Southwest 477 549 38,000  Level FlightAware
03:40AM 37.1580 -79.9370 228° Southwest 479 551 38,000  Level FlightAware
03:41AM 37.0960 -80.0190 227° Southwest 479 551 38,000  Level FlightAware
03:42AM 37.0450 -80.0890 228° Southwest 479 551 38,000  Level FlightAware
03:42AM 36.9940 -80.1580 227° Southwest 479 551 38,000  Level FlightAware
03:43AM 36.9290 -80.2440 227° Southwest 479 551 38,000  Level FlightAware
03:44AM 36.8780 -80.3130 227° Southwest 479 551 38,000  Level FlightAware
03:45AM 36.8270 -80.3810 227° Southwest 479 551 38,000  Level FlightAware
03:45AM 36.7750 -80.4500 227° Southwest 479 551 38,000  Level FlightAware
03:46AM 36.7110 -80.5360 227° Southwest 479 551 38,000  Level FlightAware
03:47AM 36.6600 -80.6050 227° Southwest 479 551 38,000  Level FlightAware
03:47AM 36.6080 -80.6740 227° Southwest 479 551 38,000  Level FlightAware
03:48AM 36.5570 -80.7420 227° Southwest 479 551 38,000  Level FlightAware
03:49AM 36.5050 -80.8110 227° Southwest 479 551 38,000  Level FlightAware
03:49AM 36.3377 -81.0395 228° Southwest 485 558 38,000  Level FlightAware ADS-B
03:50AM 36.2916 -81.1000 227° Southwest 483 556 38,000  Level FlightAware ADS-B
03:53AM 36.0385 -81.4311 227° Southwest 483 556 38,000  Level FlightAware ADS-B
03:53AM 35.9738 -81.5150 226° Southwest 484 557 38,000  Level FlightAware ADS-B
03:54AM 35.9268 -81.5755 226° Southwest 485 558 38,000  Level FlightAware ADS-B
03:54AM 35.8803 -81.6353 226° Southwest 477 549 38,000  Level FlightAware ADS-B
03:55AM 35.8347 -81.6943 226° Southwest 468 539 38,000  Level FlightAware ADS-B
03:55AM 35.7892 -81.7533 226° Southwest 463 533 38,000  Level FlightAware ADS-B
03:56AM 35.7359 -81.8220 226° Southwest 460 529 38,000  Level FlightAware ADS-B
03:56AM 35.6915 -81.8791 226° Southwest 463 533 38,000  Level FlightAware ADS-B
03:57AM 35.6463 -81.9372 226° Southwest 468 539 38,000  Level FlightAware ADS-B
03:57AM 35.6009 -81.9952 226° Southwest 471 542 38,000  Level FlightAware ADS-B
03:58AM 35.5553 -82.0536 226° Southwest 472 543 38,000  Level FlightAware ADS-B
03:58AM 35.5092 -82.1124 226° Southwest 474 545 38,000 -300 Level FlightAware ADS-B
03:59AM 35.4626 -82.1718 226° Southwest 475 547 37,700 -1,020 Descending FlightAware ADS-B
03:59AM 35.4155 -82.2316 226° Southwest 480 552 37,000 -1,200 Descending FlightAware ADS-B
04:00AM 35.3681 -82.2916 226° Southwest 480 552 36,500 -1,140 Descending FlightAware ADS-B
04:00AM 35.3214 -82.3509 226° Southwest 481 554 35,900 -1,140 Descending FlightAware ADS-B
04:01AM 35.2749 -82.4099 226° Southwest 482 555 35,400 -1,140 Descending FlightAware ADS-B
04:01AM 35.2267 -82.4708 226° Southwest 482 555 34,800 -1,140 Descending FlightAware ADS-B
04:02AM 35.1793 -82.5310 226° Southwest 482 555 34,300 -840 Descending FlightAware ADS-B
04:02AM 35.1324 -82.5902 226° Southwest 481 554 34,000 -300 Descending FlightAware ADS-B
04:03AM 35.0858 -82.6489 226° Southwest 482 555 34,000  Level FlightAware ADS-B
04:03AM 35.0383 -82.7085 226° Southwest 484 557 34,000  Level FlightAware ADS-B
04:04AM 34.9906 -82.7682 226° Southwest 485 558 34,000  Level FlightAware ADS-B
04:04AM 34.9429 -82.8278 226° Southwest 483 556 34,000  Level FlightAware ADS-B
04:05AM 34.8944 -82.8885 226° Southwest 484 557 34,000  Level FlightAware ADS-B
04:06AM 34.8443 -82.9511 226° Southwest 484 557 34,000  Level FlightAware ADS-B
04:06AM 34.7970 -83.0103 226° Southwest 484 557 34,000  Level FlightAware ADS-B
04:07AM 34.7492 -83.0697 226° Southwest 484 557 34,000  Level FlightAware ADS-B
04:07AM 34.7018 -83.1287 226° Southwest 484 557 34,000  Level FlightAware ADS-B
04:08AM 34.6542 -83.1883 226° Southwest 485 558 34,000 -240 Level FlightAware ADS-B
04:08AM 34.6069 -83.2474 226° Southwest 482 555 33,800 -1,320 Descending FlightAware ADS-B
04:09AM 34.5586 -83.3076 226° Southwest 477 549 32,700 -3,000 Descending FlightAware ADS-B
04:09AM 34.5115 -83.3661 226° Southwest 481 554 30,700 -4,080 Descending FlightAware ADS-B
04:10AM 34.4646 -83.4243 226° Southwest 484 557 28,600 -4,320 Descending FlightAware ADS-B
04:10AM 34.4164 -83.4839 226° Southwest 482 555 26,400 -4,080 Descending FlightAware ADS-B
04:11AM 34.3694 -83.5414 225° Southwest 466 536 24,500 -3,720 Descending FlightAware ADS-B
04:11AM 34.3225 -83.5991 225° Southwest 452 520 22,600 -3,840 Descending FlightAware ADS-B
04:12AM 34.2761 -83.6560 225° Southwest 449 517 20,500 -3,420 Descending FlightAware ADS-B
04:12AM 34.2260 -83.7180 226° Southwest 429 494 18,500 -3,240 Descending FlightAware
04:13AM 34.1660 -83.7910 225° Southwest 413 475 16,200 -2,820 Descending FlightAware
04:14AM 34.1120 -83.8560 225° Southwest 408 470 14,800 -2,280 Descending FlightAware
04:14AM 34.0680 -83.9370 237° Southwest 396 456 13,000 -2,580 Descending FlightAware
04:15AM 34.0330 -84.0140 241° Southwest 385 443 11,200 -1,440 Descending FlightAware
04:16AM 33.9970 -84.0940 242° Southwest 330 380 11,000 -180 Descending FlightAware
04:16AM 33.9690 -84.1560 241° Southwest 292 336 11,000  Level FlightAware
04:17AM 33.9440 -84.2110 241° Southwest 288 331 11,000  Level FlightAware
04:18AM 33.9160 -84.2730 241° Southwest 284 327 11,000 -360 Level FlightAware
04:19AM 33.8900 -84.3290 241° Southwest 281 323 10,500 -1,500 Descending FlightAware
04:19AM 33.8720 -84.3690 242° Southwest 279 321 9,300 -2,640 Descending FlightAware
04:19AM 33.8550 -84.4060 241° Southwest 278 320 8,100 -2,700 Descending FlightAware
04:20AM 33.8470 -84.4240 242° Southwest 277 319 7,500 -2,400 Descending FlightAware
04:20AM 33.8280 -84.4640 240° Southwest 271 312 6,300 -2,100 Descending FlightAware
04:21AM 33.8080 -84.5010 237° Southwest 256 295 5,400 -1,440 Descending FlightAware
04:21AM 33.7850 -84.5220 217° Southwest 232 267 5,000 -1,020 Descending FlightAware
04:22AM 33.7580 -84.5380 206° Southwest 212 244 4,500 -1,020 Descending FlightAware
04:22AM 33.7360 -84.5500 204° Southwest 203 234 4,100 -900 Descending FlightAware
04:23AM 33.7120 -84.5610 201° Southwest 186 214 3,700 -900 Descending FlightAware
04:23AM 33.6870 -84.5710 198° South 180 207 3,200 -900 Descending FlightAware
04:23AM 33.6780 -84.5730 190° South 178 205 3,100 -420 Descending FlightAware
04:23AM 33.6770 -84.5730 180° South 178 205 3,100 -420 Level FlightAware
04:24AM 33.6550 -84.5630 159° South 171 197 2,900 -480 Descending FlightAware
04:24AM 33.6490 -84.5520 123° Southeast 172 198 2,800 -600 Descending FlightAware
04:24AM 33.6490 -84.5370 90° East 181 208 2,600 -900 Descending FlightAware
04:25AM 33.6490 -84.5130 90° East 165 190 2,200 -840 Descending FlightAware
04:25AM 33.6500 -84.4810 88° East 131 151 1,700 -720 Descending FlightAware
04:26AM 33.6500 -84.4600 90° East 124 143 1,400 -600 Descending FlightAware
04:26AM 33.6500 -84.4410 90° East 123 142 1,100 -600 Descending FlightAware